Time;durP1;ratioP1;P1;durP2;ratioP2;P2;SDS_P1;SDS_P2;PMS_P1;PMS_P2;Temp;Humidity;BMP_temperature;BMP_pressure;BME280_temperature;BME280_humidity;BME280_pressure;Samples;Min_cycle;Max_cycle;Signal;HPM_P1;HPM_P2
2022/12/05 00:00:24;;;;;;;56.63;31.15;;;;;;;0.75;100.00;101463.78;10280539;28;20054;-92
2022/12/05 00:05:25;;;;;;;53.28;30.67;;;;;;;0.69;100.00;101460.63;10251736;28;20113;-94
2022/12/05 00:10:25;;;;;;;53.67;32.78;;;;;;;0.72;100.00;101461.84;10281908;28;20066;-93
2022/12/05 00:15:26;;;;;;;49.38;32.00;;;;;;;0.76;100.00;101465.59;10266813;28;20039;-93
2022/12/05 00:20:26;;;;;;;50.42;31.27;;;;;;;0.74;100.00;101469.72;10281451;28;20050;-92
2022/12/05 00:25:27;;;;;;;53.65;31.13;;;;;;;0.84;100.00;101459.53;10264488;28;20134;-94
2022/12/05 00:30:27;;;;;;;44.13;28.05;;;;;;;0.86;100.00;101476.03;10265887;28;20047;-92
2022/12/05 00:35:28;;;;;;;51.28;30.65;;;;;;;0.78;100.00;101463.19;10281796;28;20491;-92
2022/12/05 00:40:28;;;;;;;47.70;28.50;;;;;;;0.84;100.00;101461.22;10270280;28;20034;-92
2022/12/05 00:45:29;;;;;;;53.10;30.20;;;;;;;0.85;100.00;101469.06;10257149;28;20467;-92
2022/12/05 00:50:29;;;;;;;56.95;28.73;;;;;;;0.88;100.00;101465.91;10289082;28;20125;-92
2022/12/05 00:55:30;;;;;;;47.97;28.45;;;;;;;0.83;100.00;101467.13;10246955;28;20116;-92
2022/12/05 01:00:30;;;;;;;49.10;31.20;;;;;;;0.83;100.00;101465.44;10278357;28;20042;-92
2022/12/05 01:05:33;;;;;;;56.30;31.10;;;;;;;0.86;100.00;101470.00;10279616;28;20065;-91
2022/12/05 01:10:33;;;;;;;57.13;32.30;;;;;;;0.81;100.00;101473.81;10279006;28;20396;-92
2022/12/05 01:15:36;;;;;;;48.30;31.55;;;;;;;0.75;100.00;101460.31;10279391;28;20121;-92
2022/12/05 01:20:40;;;;;;;58.30;35.03;;;;;;;0.75;100.00;101465.47;10279422;28;20049;-92
2022/12/05 01:26:04;;;;;;;57.92;32.75;;;;;;;0.79;100.00;101462.44;10249206;28;20042;-93
2022/12/05 01:31:09;;;;;;;59.55;36.10;;;;;;;0.86;100.00;101473.47;10279555;28;20046;-92
2022/12/05 01:36:10;;;;;;;57.72;36.35;;;;;;;0.92;100.00;101479.97;10264019;28;20043;-93
2022/12/05 01:41:15;;;;;;;62.57;34.60;;;;;;;0.88;100.00;101478.78;10266634;28;20428;-93
2022/12/05 01:46:16;;;;;;;60.38;35.25;;;;;;;0.91;100.00;101485.88;10290444;28;20039;-92
2022/12/05 01:51:17;;;;;;;54.80;33.10;;;;;;;0.97;100.00;101478.75;10257877;28;20053;-93
2022/12/05 01:56:18;;;;;;;68.27;38.60;;;;;;;0.90;100.00;101486.66;10290290;28;20051;-93
2022/12/05 02:01:18;;;;;;;51.10;32.58;;;;;;;0.85;100.00;101492.28;10272163;28;20042;-92
2022/12/05 02:06:19;;;;;;;54.40;34.20;;;;;;;0.82;100.00;101494.56;10250252;28;20487;-89
2022/12/05 02:11:20;;;;;;;51.35;30.45;;;;;;;0.89;100.00;101496.06;10285397;28;20528;-83
2022/12/05 02:16:33;;;;;;;68.60;35.60;;;;;;;1.12;100.00;101494.78;10269795;28;20479;-91
2022/12/05 02:21:39;;;;;;;;;;;;;;;1.17;100.00;101498.72;10289831;28;20130;-93
2022/12/05 02:26:58;;;;;;;60.78;36.17;;;;;;;1.16;100.00;101495.22;10287921;28;19922;-91
2022/12/05 02:32:06;;;;;;;57.05;35.10;;;;;;;1.25;100.00;101486.53;10286226;28;20050;-92
2022/12/05 02:37:27;;;;;;;69.07;34.40;;;;;;;1.20;100.00;101492.94;10276111;28;20049;-92
2022/12/05 02:42:30;;;;;;;58.28;36.10;;;;;;;1.20;100.00;101493.84;10281135;28;20043;-92
2022/12/05 02:47:31;;;;;;;69.97;38.00;;;;;;;1.16;100.00;101491.75;10261766;28;20062;-92
2022/12/05 02:52:31;;;;;;;65.70;38.55;;;;;;;1.21;100.00;101487.00;10250979;28;20042;-92
2022/12/05 02:57:32;;;;;;;59.75;36.10;;;;;;;1.22;100.00;101481.09;10267753;28;20045;-93
2022/12/05 03:02:33;;;;;;;68.80;38.13;;;;;;;1.22;100.00;101484.59;10285241;28;20133;-93
2022/12/05 03:07:34;;;;;;;68.60;35.88;;;;;;;1.23;100.00;101482.91;10268224;28;20550;-93
2022/12/05 03:12:38;;;;;;;62.00;36.75;;;;;;;1.22;100.00;101476.84;10267199;28;20166;-92
2022/12/05 03:17:51;;;;;;;68.97;39.50;;;;;;;1.21;100.00;101481.84;10278362;28;20054;-92
2022/12/05 03:22:57;;;;;;;62.10;37.55;;;;;;;1.21;100.00;101471.53;10242170;28;20062;-90
2022/12/05 03:28:05;;;;;;;57.47;34.83;;;;;;;1.20;100.00;101483.53;10288033;28;20082;-91
2022/12/05 03:33:19;;;;;;;73.22;39.70;;;;;;;1.14;100.00;101485.53;10282120;28;20053;-91
2022/12/05 03:38:33;;;;;;;59.20;37.05;;;;;;;1.20;100.00;101492.94;10300334;28;20498;-91
2022/12/05 03:43:39;;;;;;;67.85;41.35;;;;;;;1.16;100.00;101490.06;10283774;28;20069;-92
2022/12/05 03:48:48;;;;;;;64.28;42.25;;;;;;;1.10;100.00;101484.31;10265979;28;20479;-92
2022/12/05 03:54:13;;;;;;;65.97;38.50;;;;;;;1.01;100.00;101483.44;10306156;28;20551;-92
2022/12/05 03:59:31;;;;;;;72.03;40.78;;;;;;;0.99;100.00;101505.59;10254136;28;20070;-88
2022/12/05 04:04:57;;;;;;;71.75;42.53;;;;;;;1.02;100.00;101500.72;10245462;28;20054;-90
2022/12/05 04:09:59;;;;;;;77.53;41.92;;;;;;;0.95;100.00;101506.97;10292655;28;20050;-89
2022/12/05 04:15:03;;;;;;;69.13;43.33;;;;;;;1.05;100.00;101508.75;10264366;28;20047;-90
2022/12/05 04:25:36;;;;;;;86.78;45.28;;;;;;;1.12;100.00;101500.84;10268590;28;20769;-91
2022/12/05 04:30:43;;;;;;;65.35;38.67;;;;;;;1.11;100.00;101511.03;10275421;28;20042;-88
2022/12/05 04:35:53;;;;;;;73.55;43.28;;;;;;;1.10;100.00;101512.69;10271757;28;20096;-95
2022/12/05 04:41:02;;;;;;;77.63;44.22;;;;;;;1.12;100.00;101518.00;10286954;28;20066;-89
2022/12/05 04:46:03;;;;;;;71.75;43.72;;;;;;;1.06;100.00;101520.00;10256536;28;20086;-91
2022/12/05 04:51:05;;;;;;;79.70;42.75;;;;;;;0.98;100.00;101519.22;10251871;28;20038;-90
2022/12/05 04:56:06;;;;;;;71.07;44.35;;;;;;;1.04;100.00;101524.09;10232136;28;20415;-89
2022/12/05 05:01:09;;;;;;;69.13;37.50;;;;;;;1.10;100.00;101525.56;10262894;28;20041;-89
2022/12/05 05:06:10;;;;;;;72.78;40.88;;;;;;;1.09;100.00;101521.19;10261695;28;20039;-89
2022/12/05 05:11:16;;;;;;;73.63;40.20;;;;;;;1.08;100.00;101519.34;10243333;28;20566;-89
2022/12/05 05:16:22;;;;;;;73.00;39.70;;;;;;;1.09;100.00;101520.28;10225694;28;20381;-90
2022/12/05 05:21:30;;;;;;;63.72;38.25;;;;;;;0.99;100.00;101529.72;10269385;28;20154;-89
2022/12/05 05:26:33;;;;;;;66.60;40.35;;;;;;;1.05;100.00;101528.47;10261938;28;20042;-87
2022/12/05 05:31:34;;;;;;;65.70;43.72;;;;;;;1.00;100.00;101535.75;10292577;28;20041;-92
2022/12/05 05:36:34;;;;;;;78.45;41.08;;;;;;;1.01;100.00;101540.16;10256372;28;20049;-85
2022/12/05 05:41:35;;;;;;;69.10;41.78;;;;;;;0.97;100.00;101543.19;10300078;28;20152;-91
2022/12/05 05:46:36;;;;;;;71.57;40.55;;;;;;;0.95;100.00;101542.13;10307675;28;20044;-85
2022/12/05 05:51:36;;;;;;;79.57;42.72;;;;;;;0.94;100.00;101543.81;10305207;28;20491;-91
2022/12/05 05:56:37;;;;;;;77.95;45.60;;;;;;;0.96;100.00;101549.09;10272614;28;20114;-83
2022/12/05 06:01:38;;;;;;;63.70;41.60;;;;;;;1.06;100.00;101541.50;10259286;28;20043;-91
2022/12/05 06:06:39;;;;;;;58.92;37.60;;;;;;;0.99;100.00;101555.50;10266325;28;20066;-89
2022/12/05 06:11:40;;;;;;;63.47;36.75;;;;;;;1.04;100.00;101553.34;10292576;28;20039;-88
2022/12/05 06:16:41;;;;;;;65.75;37.55;;;;;;;1.14;100.00;101555.16;10293544;28;20035;-86
2022/12/05 06:21:41;;;;;;;52.78;32.10;;;;;;;1.12;100.00;101548.94;10296314;28;20126;-85
2022/12/05 06:26:42;;;;;;;60.78;35.50;;;;;;;1.01;100.00;101569.44;10273113;28;20398;-85
2022/12/05 06:31:42;;;;;;;55.60;36.45;;;;;;;1.07;100.00;101557.91;10313870;28;20042;-85
2022/12/05 06:36:43;;;;;;;57.28;36.13;;;;;;;1.13;100.00;101563.66;10314266;28;20125;-87
2022/12/05 06:41:43;;;;;;;60.45;35.33;;;;;;;1.11;100.00;101572.91;10321844;28;20066;-87
2022/12/05 06:46:44;;;;;;;56.20;34.92;;;;;;;1.05;100.00;101560.31;10301781;28;20046;-87
2022/12/05 06:51:44;;;;;;;61.25;37.20;;;;;;;1.05;100.00;101575.78;10284264;28;20126;-87
2022/12/05 06:56:45;;;;;;;64.00;38.22;;;;;;;1.03;100.00;101572.16;10283024;28;20151;-88
2022/12/05 07:01:46;;;;;;;67.70;39.65;;;;;;;0.92;100.00;101580.50;10263574;28;20058;-84
2022/12/05 07:06:48;;;;;;;70.65;38.97;;;;;;;0.88;100.00;101590.50;10283973;28;20106;-83
2022/12/05 07:11:49;;;;;;;64.75;36.08;;;;;;;1.00;100.00;101595.06;10267137;28;20479;-88
2022/12/05 07:16:50;;;;;;;57.35;34.60;;;;;;;1.07;100.00;101594.00;10283407;28;20368;-89
2022/12/05 07:21:50;;;;;;;56.90;35.67;;;;;;;1.02;100.00;101609.94;10279446;28;20066;-81
2022/12/05 07:26:51;;;;;;;69.47;38.03;;;;;;;0.99;100.00;101614.78;10265022;28;20109;-84
2022/12/05 07:31:52;;;;;;;57.22;33.45;;;;;;;0.90;100.00;101626.75;10285288;28;20046;-87
2022/12/05 07:36:53;;;;;;;61.22;34.45;;;;;;;0.86;100.00;101619.50;10304522;28;20081;-95
2022/12/05 07:41:53;;;;;;;62.33;36.05;;;;;;;0.91;100.00;101625.06;10322377;28;20058;-88
2022/12/05 07:46:54;;;;;;;54.92;33.63;;;;;;;0.88;100.00;101623.13;10320399;28;20541;-88
2022/12/05 07:51:54;;;;;;;57.42;35.20;;;;;;;0.86;100.00;101622.97;10279723;28;20130;-87
2022/12/05 07:56:55;;;;;;;60.08;32.28;;;;;;;0.83;100.00;101624.34;10300687;28;20197;-93
2022/12/05 08:01:55;;;;;;;53.17;33.03;;;;;;;0.85;100.00;101634.03;10283344;28;20079;-94
2022/12/05 08:06:56;;;;;;;55.45;32.78;;;;;;;0.82;100.00;101637.97;10284712;28;20034;-93
2022/12/05 08:11:57;;;;;;;55.42;31.85;;;;;;;0.82;100.00;101638.88;10281638;28;20061;-90
2022/12/05 08:16:57;;;;;;;60.90;36.50;;;;;;;0.83;100.00;101652.69;10280665;28;20047;-94
2022/12/05 08:21:58;;;;;;;51.80;33.03;;;;;;;0.87;100.00;101655.72;10264196;28;20046;-89
2022/12/05 08:26:58;;;;;;;46.95;29.50;;;;;;;0.91;100.00;101659.50;10276405;28;20133;-87
2022/12/05 08:31:59;;;;;;;45.80;29.65;;;;;;;0.91;100.00;101669.81;10281915;28;20049;-88
2022/12/05 08:36:59;;;;;;;40.30;28.38;;;;;;;0.98;100.00;101671.31;10279268;28;20133;-88
2022/12/05 08:42:00;;;;;;;43.00;25.90;;;;;;;0.93;100.00;101669.97;10279984;28;20074;-89
2022/12/05 08:47:00;;;;;;;46.00;26.58;;;;;;;1.00;100.00;101674.97;10281171;28;20039;-89
2022/12/05 08:52:01;;;;;;;38.95;22.90;;;;;;;0.93;100.00;101682.84;10263587;28;20038;-88
2022/12/05 08:57:01;;;;;;;43.22;24.02;;;;;;;0.89;100.00;101684.22;10262939;28;20053;-88
2022/12/05 09:02:02;;;;;;;44.83;27.70;;;;;;;0.83;100.00;101689.66;10278839;28;20038;-88
2022/12/05 09:07:03;;;;;;;39.78;27.08;;;;;;;0.86;100.00;101699.38;10277748;28;20121;-88
2022/12/05 09:12:03;;;;;;;45.58;24.60;;;;;;;0.92;100.00;101699.06;10279993;28;20167;-88
2022/12/05 09:17:04;;;;;;;39.60;27.10;;;;;;;0.81;100.00;101698.91;10279066;28;20079;-87
2022/12/05 09:22:05;;;;;;;45.38;27.10;;;;;;;0.83;100.00;101709.38;10261172;28;20122;-88
2022/12/05 09:27:05;;;;;;;40.42;24.30;;;;;;;0.82;100.00;101712.72;10261450;28;20053;-87
2022/12/05 09:32:06;;;;;;;38.45;24.30;;;;;;;0.73;100.00;101715.28;10279787;28;20122;-84
2022/12/05 09:37:06;;;;;;;32.08;23.25;;;;;;;0.65;100.00;101716.16;10277863;28;20058;-87
2022/12/05 09:42:22;;;;;;;32.38;22.35;;;;;;;0.67;100.00;101722.38;10275130;28;20043;-87
2022/12/05 09:47:27;;;;;;;32.95;22.00;;;;;;;0.75;100.00;101725.75;10281097;28;20737;-86
2022/12/05 09:52:30;;;;;;;29.75;21.65;;;;;;;0.70;100.00;101727.84;10277620;28;20536;-85
2022/12/05 09:57:39;;;;;;;32.63;21.35;;;;;;;0.61;100.00;101724.34;10261437;28;20050;-86
2022/12/05 10:03:01;;;;;;;27.92;20.05;;;;;;;0.66;100.00;101718.91;10263006;28;20047;-85
2022/12/05 10:08:27;;;;;;;30.13;22.70;;;;;;;0.69;100.00;101726.03;10278154;28;20487;-86
2022/12/05 10:13:43;;;;;;;24.60;18.08;;;;;;;0.69;100.00;101724.38;10262599;28;20553;-84
2022/12/05 10:18:46;;;;;;;25.15;19.70;;;;;;;0.70;100.00;101709.81;10310239;28;20053;-86
2022/12/05 10:23:54;;;;;;;31.55;22.50;;;;;;;0.88;100.00;101723.66;10302151;28;20065;-87
2022/12/05 10:29:07;;;;;;;28.88;19.55;;;;;;;0.80;100.00;101722.88;10243022;28;20130;-86
2022/12/05 10:34:27;;;;;;;;;;;;;;;0.81;100.00;101723.78;10305212;28;20090;-86
2022/12/05 10:39:28;;;;;;;22.52;17.65;;;;;;;0.93;100.00;101729.25;10240499;28;19928;-87
2022/12/05 10:44:28;;;;;;;27.20;20.40;;;;;;;0.93;100.00;101727.59;10227723;28;20813;-87
2022/12/05 10:49:29;;;;;;;22.30;15.77;;;;;;;0.88;100.00;101726.22;10228485;28;20109;-86
2022/12/05 10:54:31;;;;;;;20.50;14.60;;;;;;;0.93;100.00;101734.41;10243636;28;20035;-90
2022/12/05 10:59:45;;;;;;;20.70;14.75;;;;;;;0.91;100.00;101723.03;10257732;28;20084;-91
2022/12/05 11:04:45;;;;;;;21.38;16.50;;;;;;;0.83;100.00;101728.31;10303401;28;20182;-91
2022/12/05 11:09:46;;;;;;;20.92;15.43;;;;;;;1.02;100.00;101727.59;10299326;28;20036;-92
2022/12/05 11:15:18;;;;;;;21.15;14.15;;;;;;;0.98;100.00;101720.31;10293073;28;20050;-92
2022/12/05 11:20:18;;;;;;;22.30;15.98;;;;;;;0.99;100.00;101723.06;10280363;28;20567;-90
2022/12/05 11:25:32;;;;;;;22.90;16.17;;;;;;;0.96;100.00;101716.66;10285251;28;20043;-89
2022/12/05 11:30:32;;;;;;;19.88;15.77;;;;;;;0.97;100.00;101713.34;10261130;28;20054;-88
2022/12/05 11:35:33;;;;;;;23.48;17.63;;;;;;;0.82;100.00;101712.72;10288839;28;20126;-88
2022/12/05 11:40:53;;;;;;;26.38;18.52;;;;;;;0.73;100.00;101715.28;10264634;28;20070;-88
2022/12/05 11:46:24;;;;;;;27.95;19.23;;;;;;;0.65;100.00;101706.78;10293673;28;20039;-88
2022/12/05 11:51:46;;;;;;;32.72;21.05;;;;;;;0.64;100.00;101707.53;10302815;28;20494;-87
2022/12/05 11:56:48;;;;;;;28.90;20.13;;;;;;;0.64;100.00;101710.13;10303756;28;20053;-89
2022/12/05 12:01:49;;;;;;;31.73;23.02;;;;;;;0.75;100.00;101711.19;10277451;28;20043;-89
2022/12/05 12:07:23;;;;;;;28.75;22.02;;;;;;;0.65;100.00;101705.84;10316173;28;20049;-88
2022/12/05 12:12:31;;;;;;;28.33;19.85;;;;;;;0.69;100.00;101708.00;10275558;28;20051;-87
2022/12/05 12:17:37;;;;;;;33.72;23.02;;;;;;;0.88;100.00;101716.81;10279988;28;20062;-89
2022/12/05 12:22:55;;;;;;;26.98;19.42;;;;;;;0.96;100.00;101707.28;10282886;28;20047;-88
2022/12/05 12:28:18;;;;;;;27.83;22.13;;;;;;;0.85;100.00;101710.44;10284870;28;20529;-88
2022/12/05 12:33:29;;;;;;;22.45;16.42;;;;;;;0.74;100.00;101706.78;10277848;28;20415;-83
2022/12/05 12:38:58;;;;;;;20.80;16.00;;;;;;;0.73;100.00;101703.31;10263065;28;20047;-88
2022/12/05 12:44:25;;;;;;;21.63;15.30;;;;;;;0.49;100.00;101693.09;10319615;28;20046;-88
2022/12/05 12:49:34;;;;;;;23.90;14.45;;;;;;;0.32;100.00;101696.53;10264598;28;20847;-88
2022/12/05 12:54:56;;;;;;;20.67;13.73;;;;;;;0.32;100.00;101697.44;10313873;28;20052;-88
2022/12/05 13:00:00;;;;;;;;;;;;;;;0.23;100.00;101694.84;10319134;28;20042;-87
2022/12/05 13:05:12;;;;;;;24.05;15.48;;;;;;;0.26;100.00;101700.28;10282306;28;19948;-87
2022/12/05 13:10:16;;;;;;;20.20;14.60;;;;;;;0.32;100.00;101691.38;10278616;28;20046;-87
2022/12/05 13:15:27;;;;;;;22.48;14.45;;;;;;;0.29;100.00;101687.72;10262857;28;20035;-88
2022/12/05 13:20:31;;;;;;;24.73;15.68;;;;;;;0.23;100.00;101684.53;10285584;28;20037;-87
2022/12/05 13:25:32;;;;;;;18.67;13.88;;;;;;;0.10;100.00;101692.69;10279111;28;20037;-87
2022/12/05 13:30:56;;;;;;;30.15;14.73;;;;;;;0.09;100.00;101700.22;10263129;28;20125;-90
2022/12/05 13:46:35;;;;;;;18.77;15.13;;;;;;;-0.06;100.00;101708.19;10276476;28;20043;-90
2022/12/05 13:51:36;;;;;;;24.17;16.90;;;;;;;-0.03;100.00;101711.06;10261913;28;20047;-89
2022/12/05 13:57:00;;;;;;;18.63;14.07;;;;;;;-0.11;100.00;101711.94;10266201;28;20495;-90
2022/12/05 14:02:01;;;;;;;26.58;16.52;;;;;;;-0.16;100.00;101723.41;10296949;28;20316;-89
2022/12/05 14:07:01;;;;;;;20.85;14.70;;;;;;;-0.21;100.00;101722.97;10279678;28;20101;-88
2022/12/05 14:12:11;;;;;;;23.42;16.33;;;;;;;-0.21;100.00;101725.53;10259737;28;20027;-87
2022/12/05 14:17:11;;;;;;;21.15;15.48;;;;;;;-0.13;100.00;101725.41;10288495;28;20057;-91
2022/12/05 14:22:21;;;;;;;20.02;13.57;;;;;;;-0.23;100.00;101724.47;10241839;28;20043;-88
2022/12/05 14:27:45;;;;;;;26.60;16.40;;;;;;;-0.22;100.00;101728.84;10265523;28;20101;-94
2022/12/05 14:32:46;;;;;;;22.98;16.20;;;;;;;-0.24;100.00;101729.44;10282117;28;20493;-90
2022/12/05 14:37:55;;;;;;;20.73;14.40;;;;;;;-0.30;100.00;101728.03;10276246;28;20155;-90
2022/12/05 14:43:22;;;;;;;21.35;14.45;;;;;;;-0.37;100.00;101728.13;10237476;28;20118;-92
2022/12/05 14:48:34;;;;;;;26.08;17.35;;;;;;;-0.28;100.00;101732.44;10247040;28;20046;-82
2022/12/05 14:53:36;;;;;;;;;;;;;;;-0.21;100.00;101740.03;10276659;28;20410;-88
2022/12/05 14:58:43;;;;;;;23.40;16.42;;;;;;;-0.26;100.00;101731.84;10279359;28;19926;-86
2022/12/05 15:04:10;;;;;;;24.15;17.52;;;;;;;-0.32;100.00;101737.25;10296344;28;20046;-88
2022/12/05 15:09:27;;;;;;;21.67;16.85;;;;;;;-0.34;100.00;101743.91;10300658;28;20499;-91
2022/12/05 15:14:28;;;;;;;26.50;17.98;;;;;;;-0.34;100.00;101735.28;10298817;28;20046;-80
2022/12/05 15:19:32;;;;;;;25.30;18.30;;;;;;;-0.34;100.00;101740.44;10290464;28;20049;-86
2022/12/05 15:24:36;;;;;;;28.17;17.25;;;;;;;-0.38;100.00;101746.00;10314264;28;20550;-85
2022/12/05 15:29:37;;;;;;;28.33;18.35;;;;;;;-0.39;100.00;101747.66;10299836;28;20420;-93
2022/12/05 15:35:03;;;;;;;33.63;20.45;;;;;;;-0.43;100.00;101752.31;10291165;28;20038;-86
2022/12/05 15:40:07;;;;;;;27.10;17.55;;;;;;;-0.44;100.00;101756.53;10304573;28;20039;-84
2022/12/05 15:45:13;;;;;;;25.55;16.67;;;;;;;-0.46;100.00;101763.19;10322903;28;20187;-83
2022/12/05 15:50:21;;;;;;;25.42;18.98;;;;;;;-0.53;100.00;101761.63;10282712;28;20039;-85
2022/12/05 15:55:29;;;;;;;28.08;21.17;;;;;;;-0.56;100.00;101768.09;10322857;28;20551;-83
2022/12/05 16:00:30;;;;;;;31.30;18.45;;;;;;;-0.51;100.00;101770.41;10282086;28;20380;-83
2022/12/05 16:05:34;;;;;;;26.27;19.30;;;;;;;-0.42;100.00;101774.72;10281837;28;20047;-81
2022/12/05 16:10:35;;;;;;;29.67;17.55;;;;;;;-0.40;100.00;101768.97;10277635;28;20042;-80
2022/12/05 16:15:35;;;;;;;25.67;18.98;;;;;;;-0.42;100.00;101773.03;10281290;28;20434;-82
2022/12/05 16:20:36;;;;;;;30.63;21.52;;;;;;;-0.35;100.00;101775.50;10278550;28;20030;-85
2022/12/05 16:25:36;;;;;;;28.25;19.95;;;;;;;-0.44;100.00;101777.13;10275853;28;20122;-84
2022/12/05 16:30:37;;;;;;;27.35;19.77;;;;;;;-0.50;100.00;101781.59;10277871;28;20137;-80
2022/12/05 16:35:41;;;;;;;30.67;19.92;;;;;;;-0.48;100.00;101786.19;10278987;28;20073;-84
2022/12/05 16:40:44;;;;;;;35.75;20.20;;;;;;;-0.38;100.00;101785.47;10260167;28;20735;-83
2022/12/05 16:45:45;;;;;;;27.17;19.05;;;;;;;-0.42;100.00;101790.16;10317939;28;20046;-83
2022/12/05 16:50:46;;;;;;;36.53;22.38;;;;;;;-0.41;100.00;101780.00;10318165;28;20045;-84
2022/12/05 16:55:46;;;;;;;29.15;20.23;;;;;;;-0.39;100.00;101775.03;10267140;28;20507;-83
2022/12/05 17:00:47;;;;;;;33.25;20.40;;;;;;;-0.35;100.00;101775.50;10261183;28;20043;-84
2022/12/05 17:05:48;;;;;;;28.40;20.90;;;;;;;-0.34;100.00;101776.44;10278819;28;20554;-84
2022/12/05 17:10:49;;;;;;;28.90;20.60;;;;;;;-0.38;100.00;101776.88;10276432;28;20133;-84
2022/12/05 17:15:49;;;;;;;28.50;21.30;;;;;;;-0.27;100.00;101785.72;10279775;28;20047;-83
2022/12/05 17:20:52;;;;;;;42.20;23.33;;;;;;;-0.23;100.00;101788.78;10261581;28;20039;-82
2022/12/05 17:25:54;;;;;;;30.83;20.15;;;;;;;-0.27;100.00;101789.22;10298280;28;20041;-84
2022/12/05 17:30:54;;;;;;;26.60;18.75;;;;;;;-0.22;100.00;101788.03;10277545;28;20490;-83
2022/12/05 17:35:55;;;;;;;33.50;22.83;;;;;;;-0.28;100.00;101783.88;10275980;28;20113;-85
2022/12/05 17:40:55;;;;;;;30.52;22.35;;;;;;;-0.24;100.00;101791.19;10261215;28;20183;-84
2022/12/05 17:45:58;;;;;;;30.92;20.70;;;;;;;-0.31;100.00;101793.09;10281859;28;20042;-86
2022/12/05 17:50:59;;;;;;;29.83;22.17;;;;;;;-0.30;100.00;101789.78;10274197;28;20057;-85
2022/12/05 17:55:59;;;;;;;25.60;20.52;;;;;;;-0.20;100.00;101793.31;10292997;28;20054;-83
2022/12/05 18:01:01;;;;;;;34.55;22.50;;;;;;;-0.21;100.00;101788.94;10278513;28;20035;-85
2022/12/05 18:06:03;;;;;;;26.93;19.93;;;;;;;-0.19;100.00;101785.78;10269715;28;20039;-85
2022/12/05 18:11:03;;;;;;;34.40;25.30;;;;;;;-0.17;100.00;101793.66;10236496;28;20134;-92
2022/12/05 18:16:04;;;;;;;33.63;21.27;;;;;;;-0.15;100.00;101794.72;10250137;28;20135;-85
2022/12/05 18:21:09;;;;;;;38.22;23.02;;;;;;;-0.11;100.00;101806.25;10246530;28;20134;-82
2022/12/05 18:26:09;;;;;;;43.65;27.58;;;;;;;-0.07;100.00;101795.53;10262805;28;20102;-83
2022/12/05 18:31:13;;;;;;;39.78;24.20;;;;;;;-0.09;100.00;101797.03;10247049;28;20051;-84
2022/12/05 18:36:16;;;;;;;34.88;23.23;;;;;;;0.04;100.00;101812.09;10267329;28;20050;-83
2022/12/05 18:41:16;;;;;;;37.90;25.75;;;;;;;-0.04;100.00;101809.63;10251692;28;20434;-83
2022/12/05 18:46:17;;;;;;;47.00;29.05;;;;;;;-0.04;100.00;101814.78;10268140;28;20070;-83
2022/12/05 18:51:19;;;;;;;41.30;26.40;;;;;;;0.06;100.00;101821.81;10274059;28;20130;-83
2022/12/05 18:56:21;;;;;;;39.30;25.92;;;;;;;0.04;100.00;101818.19;10260848;28;20050;-83
2022/12/05 19:01:21;;;;;;;;;;;;;;;0.06;100.00;101821.81;10256817;28;20054;-83
2022/12/05 19:06:23;;;;;;;38.40;24.65;;;;;;;0.12;100.00;101818.97;10246627;28;19922;-82
2022/12/05 19:11:25;;;;;;;39.72;27.90;;;;;;;0.18;100.00;101829.91;10265933;28;20062;-82
2022/12/05 19:16:26;;;;;;;35.50;23.50;;;;;;;0.17;100.00;101833.22;10254789;28;20066;-83
2022/12/05 19:21:28;;;;;;;40.83;25.70;;;;;;;0.19;100.00;101841.13;10255037;28;20054;-82
2022/12/05 19:26:28;;;;;;;38.95;25.98;;;;;;;0.25;100.00;101845.25;10259071;28;20038;-83
2022/12/05 19:31:29;;;;;;;39.63;25.17;;;;;;;0.24;100.00;101851.16;10257502;28;20047;-84
2022/12/05 19:36:40;;;;;;;39.28;26.05;;;;;;;0.25;100.00;101846.94;10270247;28;20516;-83
2022/12/05 19:41:41;;;;;;;38.10;26.10;;;;;;;0.24;100.00;101848.56;10230265;28;20066;-82
2022/12/05 19:46:42;;;;;;;43.33;27.48;;;;;;;0.31;100.00;101859.53;10259577;28;20123;-84
2022/12/05 19:51:42;;;;;;;40.80;27.27;;;;;;;0.25;100.00;101855.53;10281769;28;20114;-83
2022/12/05 19:56:43;;;;;;;43.08;28.83;;;;;;;0.29;100.00;101852.53;10248122;28;20046;-85
2022/12/05 20:01:44;;;;;;;43.53;28.05;;;;;;;0.35;100.00;101841.06;10283042;28;20039;-84
2022/12/05 20:06:46;;;;;;;34.03;23.17;;;;;;;0.41;100.00;101837.47;10279848;28;20395;-84
2022/12/05 20:11:47;;;;;;;38.03;25.58;;;;;;;0.45;100.00;101840.38;10263495;28;20070;-84
2022/12/05 20:16:47;;;;;;;41.53;28.77;;;;;;;0.45;100.00;101837.78;10281094;28;20059;-85
2022/12/05 20:21:48;;;;;;;42.22;26.88;;;;;;;0.41;100.00;101841.69;10280961;28;20070;-84
2022/12/05 20:26:49;;;;;;;50.35;27.45;;;;;;;0.45;100.00;101853.25;10260796;28;20186;-84
2022/12/05 20:31:51;;;;;;;43.47;28.42;;;;;;;0.46;100.00;101845.66;10271284;28;20045;-85
2022/12/05 20:36:52;;;;;;;52.40;32.25;;;;;;;0.46;100.00;101837.94;10279679;28;20039;-84
2022/12/05 20:41:52;;;;;;;43.45;27.73;;;;;;;0.54;100.00;101844.78;10301651;28;20062;-84
2022/12/05 20:46:53;;;;;;;43.03;28.55;;;;;;;0.56;100.00;101844.97;10331447;28;20135;-84
2022/12/05 20:51:53;;;;;;;45.30;32.00;;;;;;;0.62;100.00;101840.44;10314480;28;20048;-83
2022/12/05 20:56:54;;;;;;;43.13;30.55;;;;;;;0.64;100.00;101838.94;10315384;28;20114;-83
2022/12/05 21:01:54;;;;;;;52.30;31.05;;;;;;;0.62;100.00;101834.38;10318588;28;20089;-83
2022/12/05 21:06:55;;;;;;;48.38;32.10;;;;;;;0.62;100.00;101824.06;10278640;28;20182;-82
2022/12/05 21:11:55;;;;;;;51.47;29.90;;;;;;;0.67;100.00;101821.22;10276651;28;20066;-83
2022/12/05 21:16:56;;;;;;;46.67;31.70;;;;;;;0.69;100.00;101822.28;10277384;28;20050;-83
2022/12/05 21:21:56;;;;;;;49.65;32.60;;;;;;;0.69;100.00;101829.09;10276215;28;20713;-82
2022/12/05 21:26:57;;;;;;;51.60;34.97;;;;;;;0.69;100.00;101823.94;10277808;28;20089;-82
2022/12/05 21:31:58;;;;;;;56.28;34.72;;;;;;;0.74;100.00;101822.75;10270367;28;20137;-83
2022/12/05 21:36:59;;;;;;;48.63;33.35;;;;;;;0.78;100.00;101827.47;10317334;28;20576;-83
2022/12/05 21:42:00;;;;;;;51.27;33.77;;;;;;;0.79;100.00;101828.38;10315038;28;20045;-84
2022/12/05 21:47:00;;;;;;;48.58;29.83;;;;;;;0.77;100.00;101827.31;10318166;28;20384;-83
2022/12/05 21:52:01;;;;;;;63.75;37.25;;;;;;;0.73;100.00;101824.44;10281713;28;20123;-86
2022/12/05 21:57:02;;;;;;;55.90;32.33;;;;;;;0.78;100.00;101826.56;10279816;28;20122;-86
2022/12/05 22:02:02;;;;;;;53.35;34.33;;;;;;;0.72;100.00;101835.50;10277851;28;20070;-86
2022/12/05 22:07:03;;;;;;;56.13;35.47;;;;;;;0.72;100.00;101829.41;10264963;28;20560;-85
2022/12/05 22:12:04;;;;;;;52.25;34.08;;;;;;;0.78;100.00;101834.28;10285207;28;20129;-86
2022/12/05 22:17:04;;;;;;;57.45;34.60;;;;;;;0.72;100.00;101837.13;10284151;28;20043;-85
2022/12/05 22:22:05;;;;;;;57.92;34.90;;;;;;;0.72;100.00;101840.66;10283084;28;20097;-85
2022/12/05 22:27:05;;;;;;;75.43;39.97;;;;;;;0.75;100.00;101837.47;10283455;28;20047;-83
2022/12/05 22:32:06;;;;;;;57.78;36.45;;;;;;;0.77;100.00;101835.94;10284969;28;20101;-85
2022/12/05 22:37:06;;;;;;;64.93;35.75;;;;;;;0.84;100.00;101834.94;10268287;28;20137;-85
2022/12/05 22:42:06;;;;;;;56.67;31.23;;;;;;;0.83;100.00;101826.28;10284701;28;20070;-86
2022/12/05 22:47:07;;;;;;;63.40;40.65;;;;;;;0.84;100.00;101829.78;10286684;28;20046;-85
2022/12/05 22:52:07;;;;;;;69.75;37.20;;;;;;;0.88;100.00;101825.06;10282122;28;20039;-85
2022/12/05 22:57:08;;;;;;;62.53;40.30;;;;;;;0.92;100.00;101834.03;10267120;28;20467;-85
2022/12/05 23:02:08;;;;;;;58.92;39.88;;;;;;;0.90;100.00;101824.31;10283529;28;20149;-85